Time;durP1;ratioP1;P1;durP2;ratioP2;P2;SDS_P1;SDS_P2;PMS_P1;PMS_P2;Temp;Humidity;BMP_temperature;BMP_pressure;BME280_temperature;BME280_humidity;BME280_pressure;Samples;Min_cycle;Max_cycle;Signal;HPM_P1;HPM_P2
2023/12/19 00:00:49;;;;;;;2.28;1.17;;;;;;;4.36;72.80;99392.16;5005295;28;20046;-69
2023/12/19 00:03:15;;;;;;;3.15;1.50;;;;;;;4.45;73.02;99406.81;5006977;28;20173;-70
2023/12/19 00:05:41;;;;;;;1.63;1.20;;;;;;;4.56;72.95;99407.81;4967890;28;20030;-72
2023/12/19 00:08:09;;;;;;;1.67;1.20;;;;;;;4.64;72.80;99415.59;4990977;28;20053;-69
2023/12/19 00:10:37;;;;;;;3.15;1.30;;;;;;;4.78;72.64;99441.50;4988949;28;20041;-71
2023/12/19 00:13:03;;;;;;;1.95;1.38;;;;;;;4.52;72.82;99396.59;4975605;28;20061;-71
2023/12/19 00:15:33;;;;;;;3.17;1.52;;;;;;;4.73;72.67;99413.13;4991360;28;20560;-71
2023/12/19 00:17:59;;;;;;;2.10;1.60;;;;;;;4.94;72.29;99440.78;4989768;28;20038;-70
2023/12/19 00:20:25;;;;;;;2.05;1.33;;;;;;;4.90;73.00;99423.56;5004035;28;20512;-69
2023/12/19 00:22:51;;;;;;;3.97;1.65;;;;;;;4.94;72.16;99442.50;4971471;28;20093;-69
2023/12/19 00:25:18;;;;;;;3.53;2.40;;;;;;;4.85;72.61;99437.28;4989609;28;20046;-69
2023/12/19 00:27:49;;;;;;;3.60;2.03;;;;;;;4.63;72.24;99413.88;4977763;28;20129;-69
2023/12/19 00:30:16;;;;;;;5.57;2.42;;;;;;;4.72;72.49;99418.25;4989576;28;20140;-69
2023/12/19 00:32:47;;;;;;;4.55;2.75;;;;;;;4.58;72.25;99397.50;4992165;28;20043;-70
2023/12/19 00:35:14;;;;;;;3.20;2.10;;;;;;;4.64;72.35;99402.72;4989695;28;20049;-68
2023/12/19 00:37:44;;;;;;;2.42;1.80;;;;;;;4.60;72.54;99400.97;4980491;28;20113;-69
2023/12/19 00:40:15;;;;;;;1.80;1.45;;;;;;;4.36;71.98;99368.97;4971341;28;20420;-69
2023/12/19 00:42:44;;;;;;;2.95;1.50;;;;;;;4.61;72.26;99410.41;4992562;28;20097;-70
2023/12/19 00:45:11;;;;;;;2.00;1.23;;;;;;;4.74;72.53;99416.56;4968153;28;20038;-71
2023/12/19 00:47:39;;;;;;;1.65;1.38;;;;;;;4.34;72.44;99352.63;4984577;28;20038;-71
2023/12/19 00:50:07;;;;;;;2.20;1.45;;;;;;;4.22;72.50;99333.63;4970952;28;20511;-71
2023/12/19 00:52:34;;;;;;;1.63;1.20;;;;;;;4.77;72.64;99407.13;4985610;28;20069;-72
2023/12/19 00:55:04;;;;;;;1.65;1.30;;;;;;;3.88;72.38;99261.19;4979056;28;20037;-72
2023/12/19 00:57:30;;;;;;;2.20;1.45;;;;;;;4.11;72.19;99291.47;4970386;28;20042;-71
2023/12/19 00:59:56;;;;;;;4.35;2.22;;;;;;;4.83;71.76;99408.91;4986382;28;20886;-69
2023/12/19 01:02:23;;;;;;;3.75;2.47;;;;;;;4.58;71.77;99376.88;4986651;28;20096;-70
2023/12/19 01:04:50;;;;;;;8.88;3.67;;;;;;;4.59;71.72;99417.28;5004695;28;20046;-71
2023/12/19 01:07:16;;;;;;;6.68;3.08;;;;;;;4.38;72.01;99382.72;4970085;28;20111;-72
2023/12/19 01:09:42;;;;;;;9.13;4.57;;;;;;;3.97;72.16;99326.50;4989945;28;20042;-72
2023/12/19 01:12:08;;;;;;;11.55;5.40;;;;;;;3.90;72.43;99321.28;5005353;28;20047;-71
2023/12/19 01:14:37;;;;;;;9.00;4.30;;;;;;;3.86;72.47;99337.56;5002158;28;20140;-72
2023/12/19 01:17:10;;;;;;;8.05;4.35;;;;;;;4.03;72.41;99360.91;4999631;28;20501;-72
2023/12/19 01:19:37;;;;;;;6.32;3.30;;;;;;;4.04;72.57;99361.78;4984641;28;20041;-72
2023/12/19 01:22:04;;;;;;;4.80;2.60;;;;;;;4.34;73.27;99406.72;4986377;28;20054;-71
2023/12/19 01:24:35;;;;;;;3.58;2.00;;;;;;;4.19;72.46;99384.28;4977779;28;20041;-71
2023/12/19 01:27:04;;;;;;;2.92;2.00;;;;;;;4.03;72.79;99342.03;5003321;28;20050;-72
2023/12/19 01:29:30;;;;;;;3.47;1.83;;;;;;;4.26;72.58;99374.88;4986282;28;20034;-69
2023/12/19 01:31:56;;;;;;;3.95;2.42;;;;;;;4.49;72.44;99416.31;4974528;28;20049;-71
2023/12/19 01:34:23;;;;;;;8.77;3.63;;;;;;;4.19;72.65;99387.69;5001987;28;20042;-72
2023/12/19 01:36:49;;;;;;;8.32;3.85;;;;;;;4.18;72.54;99398.84;4961743;28;20054;-70
2023/12/19 01:39:15;;;;;;;7.97;3.40;;;;;;;4.21;72.70;99411.75;5004651;28;20130;-70
2023/12/19 01:41:42;;;;;;;4.88;2.92;;;;;;;4.24;72.61;99435.81;4986675;28;20045;-71
2023/12/19 01:44:18;;;;;;;5.22;2.75;;;;;;;3.79;72.86;99353.78;4985522;28;20043;-70
2023/12/19 01:46:47;;;;;;;7.90;3.95;;;;;;;4.12;73.17;99411.66;4969051;28;20034;-71
2023/12/19 01:49:14;;;;;;;12.02;3.92;;;;;;;4.02;73.03;99384.94;4983540;28;20137;-71
2023/12/19 01:51:46;;;;;;;7.03;3.45;;;;;;;4.03;73.06;99385.81;4987895;28;20417;-72
2023/12/19 01:54:13;;;;;;;10.52;3.53;;;;;;;4.06;72.91;99407.31;5003432;28;20477;-70
2023/12/19 01:56:39;;;;;;;6.45;3.42;;;;;;;4.08;72.60;99422.78;4964812;28;20041;-71
2023/12/19 01:59:08;;;;;;;6.90;2.58;;;;;;;4.11;73.00;99427.94;4971774;28;20132;-72
2023/12/19 02:01:38;;;;;;;10.43;2.50;;;;;;;3.96;72.96;99409.75;4984532;28;20068;-71
2023/12/19 02:04:08;;;;;;;4.30;1.95;;;;;;;3.94;73.99;99399.44;4981565;28;20068;-71
2023/12/19 02:06:34;;;;;;;8.52;3.10;;;;;;;3.59;73.35;99350.97;4969453;28;20036;-71
2023/12/19 02:09:01;;;;;;;6.57;2.22;;;;;;;3.91;73.77;99401.97;5001313;28;20046;-72
2023/12/19 02:11:28;;;;;;;3.45;1.85;;;;;;;4.04;73.79;99424.44;4969309;28;20033;-70
2023/12/19 02:13:58;;;;;;;2.60;1.50;;;;;;;3.90;74.06;99413.13;4990174;28;20055;-71
2023/12/19 02:16:27;;;;;;;2.05;1.48;;;;;;;3.98;73.61;99428.66;4964424;28;20077;-71
2023/12/19 02:19:04;;;;;;;2.25;1.58;;;;;;;3.90;74.07;99432.00;4951536;28;20050;-72
2023/12/19 02:21:50;;;;;;;2.05;1.50;;;;;;;3.79;73.67;99423.28;4960026;28;20043;-71
2023/12/19 02:24:18;;;;;;;2.30;1.25;;;;;;;3.89;73.95;99430.25;4982830;28;20038;-71
2023/12/19 02:26:44;;;;;;;2.63;1.20;;;;;;;3.68;74.13;99397.41;4950095;28;20469;-70
2023/12/19 02:29:13;;;;;;;1.60;1.27;;;;;;;3.20;73.85;99329.03;4966210;28;20047;-71
2023/12/19 02:31:43;;;;;;;2.13;1.25;;;;;;;3.64;74.29;99397.38;4964584;28;20038;-71
2023/12/19 02:34:12;;;;;;;1.98;1.20;;;;;;;3.80;74.03;99414.72;4948596;28;20047;-72
2023/12/19 02:36:38;;;;;;;1.58;1.30;;;;;;;3.84;73.81;99410.47;4965737;28;20513;-71
2023/12/19 02:39:10;;;;;;;1.30;0.93;;;;;;;3.81;74.16;99388.13;4965990;28;20592;-70
2023/12/19 02:41:36;;;;;;;1.95;1.33;;;;;;;3.88;74.88;99391.66;4955737;28;21471;-71
2023/12/19 02:44:04;;;;;;;4.88;1.60;;;;;;;3.94;74.25;99408.88;4966800;28;20513;-69
2023/12/19 02:46:32;;;;;;;1.63;1.42;;;;;;;3.75;74.45;99380.34;4964929;28;20484;-70
2023/12/19 02:48:59;;;;;;;1.63;1.10;;;;;;;3.83;74.43;99406.16;4932443;28;20038;-71
2023/12/19 02:51:25;;;;;;;3.20;1.40;;;;;;;3.80;74.61;99404.44;4966402;28;20045;-71
2023/12/19 02:53:52;;;;;;;2.55;1.58;;;;;;;3.69;73.91;99385.41;4948533;28;20046;-71
2023/12/19 02:56:19;;;;;;;2.72;1.38;;;;;;;3.33;74.34;99324.94;4947983;28;20039;-71
2023/12/19 02:58:45;;;;;;;1.92;1.20;;;;;;;3.39;74.85;99355.88;4964392;28;20505;-72
2023/12/19 03:01:12;;;;;;;1.38;1.02;;;;;;;3.47;74.06;99383.44;4984805;28;20489;-71
2023/12/19 03:03:44;;;;;;;2.50;1.10;;;;;;;3.49;74.72;99391.16;4965161;28;20049;-71
2023/12/19 03:06:13;;;;;;;1.20;1.10;;;;;;;3.12;74.63;99352.94;4961239;28;20466;-71
2023/12/19 03:08:45;;;;;;;1.50;1.00;;;;;;;2.66;74.46;99252.03;4964963;28;20554;-71
2023/12/19 03:11:12;;;;;;;3.22;1.38;;;;;;;2.53;74.73;99238.19;4966866;28;20576;-70
2023/12/19 03:13:39;;;;;;;2.25;1.40;;;;;;;3.53;74.33;99410.09;4957075;28;20544;-73
2023/12/19 03:16:06;;;;;;;1.70;1.20;;;;;;;2.93;74.79;99328.69;4999584;28;20481;-74
2023/12/19 03:18:32;;;;;;;1.55;1.27;;;;;;;2.97;74.50;99324.44;5003137;28;20029;-73
2023/12/19 03:20:58;;;;;;;4.47;1.20;;;;;;;3.57;74.14;99420.44;4960847;28;20465;-74
2023/12/19 03:23:25;;;;;;;3.22;0.90;;;;;;;3.19;74.08;99361.63;5006563;28;20508;-74
2023/12/19 03:25:57;;;;;;;1.75;0.80;;;;;;;3.55;74.49;99409.25;4988345;28;20096;-71
2023/12/19 03:28:23;;;;;;;1.48;0.90;;;;;;;3.12;73.88;99331.50;4955822;28;20049;-71
2023/12/19 03:30:51;;;;;;;3.20;0.80;;;;;;;3.14;74.52;99348.69;4957177;28;20538;-71
2023/12/19 03:33:17;;;;;;;1.02;0.80;;;;;;;3.53;74.26;99421.22;4954708;28;20128;-71
2023/12/19 03:35:43;;;;;;;2.65;0.90;;;;;;;3.55;73.95;99404.09;5002817;28;20645;-70
2023/12/19 03:38:15;;;;;;;2.05;0.93;;;;;;;3.45;74.63;99391.94;5006092;28;20041;-70
2023/12/19 03:40:50;;;;;;;1.60;0.90;;;;;;;3.55;74.39;99404.09;4986707;28;20579;-72
2023/12/19 03:43:17;;;;;;;1.45;1.17;;;;;;;3.11;73.93;99324.63;4974087;28;20050;-69
2023/12/19 03:45:47;;;;;;;3.42;1.17;;;;;;;3.56;74.01;99399.81;5001234;28;20042;-71
2023/12/19 03:48:13;;;;;;;1.10;0.80;;;;;;;3.21;73.96;99351.34;5004231;28;20065;-70
2023/12/19 03:50:40;;;;;;;2.85;1.00;;;;;;;3.34;74.34;99383.25;4988152;28;20093;-70
2023/12/19 03:53:06;;;;;;;1.42;1.15;;;;;;;3.32;74.70;99378.06;4967373;28;20045;-70
2023/12/19 03:55:32;;;;;;;1.20;0.90;;;;;;;2.88;74.54;99312.31;4967665;28;20418;-71
2023/12/19 03:57:58;;;;;;;2.78;1.40;;;;;;;3.07;74.70;99339.16;4988288;28;20496;-70
2023/12/19 04:00:24;;;;;;;1.30;1.17;;;;;;;3.11;74.24;99366.63;5004069;28;20045;-71
2023/12/19 04:02:50;;;;;;;3.50;1.10;;;;;;;3.33;74.14;99400.34;4989447;28;20042;-72
2023/12/19 04:05:20;;;;;;;1.20;0.80;;;;;;;3.16;74.47;99383.00;5005466;28;21405;-73
2023/12/19 04:07:46;;;;;;;1.17;0.90;;;;;;;3.17;74.03;99386.44;4986200;28;20044;-72
2023/12/19 04:10:15;;;;;;;1.17;0.88;;;;;;;3.12;74.74;99396.63;4989900;28;20076;-70
2023/12/19 04:12:44;;;;;;;1.13;0.85;;;;;;;2.80;74.48;99361.03;4955176;28;20042;-69
2023/12/19 04:15:10;;;;;;;1.88;0.75;;;;;;;3.00;74.35;99399.03;4960583;28;20575;-71
2023/12/19 04:17:38;;;;;;;1.05;0.60;;;;;;;2.34;74.99;99283.25;4967739;28;20050;-71
2023/12/19 04:20:11;;;;;;;1.05;0.75;;;;;;;2.98;74.43;99396.44;4969416;28;20061;-72
2023/12/19 04:22:41;;;;;;;0.90;0.75;;;;;;;2.98;75.08;99396.44;4942591;28;20034;-70
2023/12/19 04:25:08;;;;;;;1.20;0.88;;;;;;;2.78;75.23;99355.00;4965936;28;20047;-70
2023/12/19 04:27:37;;;;;;;1.05;0.73;;;;;;;2.84;75.23;99367.09;4985001;28;20038;-67
2023/12/19 04:30:15;;;;;;;1.02;0.70;;;;;;;2.82;75.13;99363.63;4985490;28;20045;-72
2023/12/19 04:32:45;;;;;;;1.35;0.85;;;;;;;2.13;74.52;99252.94;4984224;28;20500;-71
2023/12/19 04:35:11;;;;;;;1.30;0.82;;;;;;;2.82;74.69;99355.91;4984413;28;20042;-72
2023/12/19 04:37:37;;;;;;;1.27;1.00;;;;;;;2.54;74.51;99309.22;4949801;28;20594;-72
2023/12/19 04:40:06;;;;;;;1.63;1.00;;;;;;;2.80;74.76;99349.88;4967755;28;20125;-70
2023/12/19 04:42:33;;;;;;;1.20;0.80;;;;;;;2.81;74.79;99355.06;4968741;28;20042;-70
2023/12/19 04:44:59;;;;;;;1.30;0.70;;;;;;;2.61;74.76;99305.06;4953747;28;20043;-71
2023/12/19 04:47:25;;;;;;;3.47;1.10;;;;;;;2.81;74.73;99326.78;4984553;28;20049;-71
2023/12/19 04:49:54;;;;;;;1.00;0.90;;;;;;;2.73;74.85;99299.25;4946459;28;20058;-75
2023/12/19 04:52:29;;;;;;;1.27;0.70;;;;;;;2.84;74.77;99316.56;4949279;28;20035;-73
2023/12/19 04:55:01;;;;;;;6.63;1.85;;;;;;;2.58;75.18;99269.91;4951494;28;20108;-70
2023/12/19 04:57:30;;;;;;;3.40;1.20;;;;;;;2.82;74.84;99299.38;4947289;28;20102;-69
2023/12/19 04:59:57;;;;;;;3.20;1.20;;;;;;;2.74;74.68;99281.28;4983375;28;20047;-69
2023/12/19 05:02:26;;;;;;;2.20;1.30;;;;;;;2.65;74.56;99253.75;4983243;28;20089;-70
2023/12/19 05:04:53;;;;;;;1.30;1.20;;;;;;;2.79;74.62;99294.19;4952486;28;20081;-71
2023/12/19 05:07:20;;;;;;;1.70;0.98;;;;;;;2.87;75.06;99302.88;4945818;28;20050;-71
2023/12/19 05:09:46;;;;;;;2.08;1.27;;;;;;;2.97;74.77;99333.03;4948551;28;20053;-69
2023/12/19 05:12:19;;;;;;;1.73;1.08;;;;;;;2.60;74.47;99283.66;4939023;28;20389;-70
2023/12/19 05:14:48;;;;;;;1.77;0.90;;;;;;;2.80;74.57;99306.19;4958248;28;20062;-69
2023/12/19 05:17:15;;;;;;;1.15;1.00;;;;;;;2.66;74.80;99288.88;4951852;28;20042;-69
2023/12/19 05:19:46;;;;;;;2.30;1.00;;;;;;;2.74;75.11;99306.13;4987610;28;20065;-71
2023/12/19 05:22:12;;;;;;;1.73;1.10;;;;;;;2.56;74.63;99280.16;5002506;28;20038;-69
2023/12/19 05:24:42;;;;;;;1.83;0.85;;;;;;;2.65;75.01;99302.56;4996180;28;20065;-70
2023/12/19 05:27:10;;;;;;;;;;;;;;;2.64;74.76;99292.28;4999681;28;20103;-69
2023/12/19 05:29:36;;;;;;;1.85;1.10;;;;;;;2.20;74.78;99237.69;4985779;28;20356;-70
2023/12/19 05:32:04;;;;;;;2.47;0.70;;;;;;;2.51;75.31;99270.69;5002021;28;20520;-69
2023/12/19 05:34:33;;;;;;;0.93;0.50;;;;;;;2.19;74.91;99220.53;4967369;28;20617;-70
2023/12/19 05:37:00;;;;;;;1.10;0.68;;;;;;;2.01;75.17;99185.16;4965887;28;20062;-71
2023/12/19 05:39:31;;;;;;;1.58;0.70;;;;;;;1.97;75.08;99191.09;4986241;28;20044;-72
2023/12/19 05:42:03;;;;;;;1.02;0.70;;;;;;;2.24;74.98;99225.75;5002830;28;20052;-70
2023/12/19 05:44:32;;;;;;;0.80;0.70;;;;;;;2.07;75.07;99216.09;4965012;28;20088;-72
2023/12/19 05:46:59;;;;;;;1.20;0.90;;;;;;;2.61;75.18;99289.66;4970651;28;20057;-71
2023/12/19 05:49:29;;;;;;;2.42;0.93;;;;;;;2.52;74.53;99259.56;4954845;28;20042;-72
2023/12/19 05:52:01;;;;;;;1.20;0.82;;;;;;;2.47;74.84;99271.47;4985601;28;20792;-72
2023/12/19 05:54:30;;;;;;;1.05;0.80;;;;;;;2.61;74.99;99279.38;4969212;28;20041;-71
2023/12/19 05:57:06;;;;;;;1.48;0.70;;;;;;;2.47;75.02;99244.06;5002589;28;20070;-74
2023/12/19 05:59:35;;;;;;;2.15;0.90;;;;;;;2.43;74.80;99237.16;4975362;28;20042;-71
2023/12/19 06:02:20;;;;;;;0.90;0.80;;;;;;;2.45;75.17;99248.31;5000468;28;20062;-72
2023/12/19 06:04:51;;;;;;;1.10;0.82;;;;;;;2.04;75.11;99184.34;4985606;28;20038;-73
2023/12/19 06:07:17;;;;;;;1.92;1.00;;;;;;;2.16;75.29;99170.84;4985445;28;20145;-72
2023/12/19 06:09:55;;;;;;;1.70;1.10;;;;;;;2.07;75.37;99156.16;4988931;28;20061;-70
2023/12/19 06:12:21;;;;;;;1.00;0.90;;;;;;;2.50;74.92;99207.31;5001654;28;20072;-70
2023/12/19 06:14:47;;;;;;;1.55;1.08;;;;;;;2.22;74.68;99150.41;4998064;28;20072;-70
2023/12/19 06:17:14;;;;;;;1.88;1.20;;;;;;;2.52;75.51;99203.91;4979652;28;20342;-72
2023/12/19 06:19:40;;;;;;;3.05;1.20;;;;;;;2.46;75.44;99192.69;4985187;28;20077;-71
2023/12/19 06:22:11;;;;;;;1.85;1.25;;;;;;;2.54;75.04;99214.19;5001680;28;20030;-71
2023/12/19 06:24:37;;;;;;;1.40;1.02;;;;;;;2.20;74.91;99152.09;4943742;28;20064;-71
2023/12/19 06:27:07;;;;;;;3.40;1.65;;;;;;;2.61;74.95;99231.41;4983626;28;20048;-69
2023/12/19 06:29:33;;;;;;;3.58;1.40;;;;;;;2.41;75.12;99178.06;4969570;28;20041;-71
2023/12/19 06:32:09;;;;;;;0.90;0.75;;;;;;;2.51;74.99;99184.19;4987034;28;20049;-71
2023/12/19 06:34:36;;;;;;;1.00;0.90;;;;;;;2.49;74.88;99200.44;5000609;28;20041;-69
2023/12/19 06:37:05;;;;;;;2.00;1.00;;;;;;;2.58;75.21;99199.69;5000680;28;20393;-71
2023/12/19 06:39:32;;;;;;;2.00;0.90;;;;;;;2.74;75.29;99217.03;5000407;28;20052;-70
2023/12/19 06:42:06;;;;;;;2.47;1.20;;;;;;;2.79;75.12;99229.94;4968378;28;20053;-71
2023/12/19 06:44:32;;;;;;;2.22;1.27;;;;;;;2.84;75.27;99212.88;4998001;28;20038;-71
2023/12/19 06:47:04;;;;;;;2.25;0.95;;;;;;;2.39;75.16;99136.09;4982447;28;20057;-72
2023/12/19 06:49:36;;;;;;;1.13;1.00;;;;;;;2.56;74.73;99163.69;4997582;28;20042;-72
2023/12/19 06:52:04;;;;;;;1.25;1.00;;;;;;;2.72;75.15;99200.75;4996001;28;20046;-70
2023/12/19 06:54:36;;;;;;;1.00;0.90;;;;;;;2.74;74.84;99208.47;5001608;28;20033;-69
2023/12/19 06:57:02;;;;;;;2.28;1.20;;;;;;;2.68;74.95;99215.25;4991622;28;20053;-72
2023/12/19 06:59:33;;;;;;;4.93;1.20;;;;;;;2.64;74.93;99198.06;4983757;28;20157;-71
2023/12/19 07:02:03;;;;;;;2.00;1.20;;;;;;;2.56;74.76;99181.69;4986346;28;20046;-70
2023/12/19 07:04:29;;;;;;;4.03;1.30;;;;;;;2.55;75.28;99169.69;4969541;28;20292;-69
2023/12/19 07:06:56;;;;;;;1.70;1.35;;;;;;;2.78;75.72;99171.69;4981008;28;20073;-69
2023/12/19 07:09:27;;;;;;;1.58;1.10;;;;;;;2.82;75.34;99161.47;4999501;28;20038;-69
2023/12/19 07:11:53;;;;;;;1.75;1.30;;;;;;;2.85;75.31;99152.94;5002477;28;20038;-72
2023/12/19 07:14:21;;;;;;;2.45;1.65;;;;;;;2.51;75.08;99088.31;4960387;28;20536;-72
2023/12/19 07:17:01;;;;;;;2.33;1.48;;;;;;;3.07;74.92;99168.59;4959886;28;20034;-74
2023/12/19 07:19:34;;;;;;;2.72;1.40;;;;;;;2.83;75.08;99129.81;4954216;28;20066;-70
2023/12/19 07:22:02;;;;;;;2.25;1.52;;;;;;;2.80;75.73;99119.47;4987883;28;20034;-67
2023/12/19 07:24:34;;;;;;;3.00;1.50;;;;;;;2.99;75.08;99138.53;4971705;28;20081;-69
2023/12/19 07:27:26;;;;;;;3.03;1.70;;;;;;;3.20;75.07;99161.91;5006919;28;20040;-69
2023/12/19 07:29:55;;;;;;;4.40;1.83;;;;;;;3.20;75.59;99155.03;4970142;28;20046;-69
2023/12/19 07:32:23;;;;;;;4.47;1.75;;;;;;;3.11;75.47;99139.53;5006327;28;20068;-70
2023/12/19 07:34:58;;;;;;;2.90;1.50;;;;;;;3.21;75.36;99143.06;4971256;28;20064;-71
2023/12/19 07:37:26;;;;;;;2.30;1.63;;;;;;;2.78;75.14;99079.19;4989355;28;20042;-70
2023/12/19 07:39:53;;;;;;;3.28;1.63;;;;;;;2.84;75.59;99075.00;4991708;28;20064;-68
2023/12/19 07:42:26;;;;;;;3.15;1.90;;;;;;;2.81;75.33;99056.97;4978412;28;20057;-70
2023/12/19 07:44:55;;;;;;;2.33;1.60;;;;;;;3.29;75.15;99141.44;4993936;28;20563;-70
2023/12/19 07:47:22;;;;;;;2.65;1.65;;;;;;;2.90;75.01;99068.16;4979996;28;20053;-71
2023/12/19 07:49:51;;;;;;;2.38;1.42;;;;;;;2.99;75.31;99050.28;5011087;28;20034;-69
2023/12/19 07:52:27;;;;;;;1.80;1.50;;;;;;;3.31;74.98;99086.59;4977196;28;20046;-72
2023/12/19 07:54:57;;;;;;;4.15;1.60;;;;;;;3.36;75.20;99080.63;4993253;28;20516;-70
2023/12/19 07:57:23;;;;;;;1.38;1.20;;;;;;;3.27;74.76;99053.97;5007798;28;20042;-72
2023/12/19 07:59:55;;;;;;;2.20;1.50;;;;;;;3.29;74.97;99060.00;4977374;28;20042;-72
2023/12/19 08:02:24;;;;;;;4.05;1.90;;;;;;;3.23;75.31;99046.22;4976979;28;20046;-74
2023/12/19 08:04:52;;;;;;;2.08;1.27;;;;;;;3.45;75.13;99075.53;4993170;28;20077;-73
2023/12/19 08:07:20;;;;;;;3.05;1.75;;;;;;;3.31;75.38;99034.31;4991497;28;20105;-73
2023/12/19 08:09:54;;;;;;;2.42;1.50;;;;;;;3.61;74.46;99092.84;5007394;28;20042;-73
2023/12/19 08:12:42;;;;;;;2.58;1.45;;;;;;;3.17;74.92;99009.31;4995139;28;20040;-72
2023/12/19 08:15:10;;;;;;;2.35;1.30;;;;;;;3.15;75.34;99007.59;4989189;28;20069;-74
2023/12/19 08:17:39;;;;;;;4.05;1.30;;;;;;;3.52;74.94;99063.63;4982731;28;20050;-74
2023/12/19 08:20:14;;;;;;;1.55;1.10;;;;;;;3.52;74.63;99067.03;4994228;28;20144;-72
2023/12/19 08:22:47;;;;;;;2.28;1.05;;;;;;;2.81;74.97;98971.28;4978948;28;20093;-72
2023/12/19 08:25:24;;;;;;;1.50;1.02;;;;;;;3.07;74.94;99009.22;4981926;28;20069;-72
2023/12/19 08:28:02;;;;;;;2.42;1.52;;;;;;;2.77;74.32;98952.41;4978213;28;20165;-72
2023/12/19 08:30:32;;;;;;;1.73;1.23;;;;;;;3.36;74.95;99042.91;4979250;28;20026;-70
2023/12/19 08:32:59;;;;;;;2.20;1.60;;;;;;;3.38;74.71;99056.63;5012368;28;20046;-71
2023/12/19 08:35:32;;;;;;;1.90;1.20;;;;;;;3.01;74.87;99004.91;4993479;28;20042;-73
2023/12/19 08:38:05;;;;;;;2.13;1.30;;;;;;;2.90;74.98;98966.25;4986164;28;20049;-72
2023/12/19 08:40:37;;;;;;;3.20;1.30;;;;;;;3.33;75.27;99030.00;4994053;28;20097;-71
2023/12/19 08:43:18;;;;;;;2.65;1.83;;;;;;;3.45;74.83;99042.97;4995310;28;20069;-73
2023/12/19 08:45:48;;;;;;;1.90;1.30;;;;;;;3.29;75.02;99003.41;4954672;28;20027;-73
2023/12/19 08:48:16;;;;;;;2.22;1.75;;;;;;;3.37;74.76;99016.31;4958270;28;20517;-71
2023/12/19 08:50:42;;;;;;;2.28;1.35;;;;;;;3.44;75.02;99024.94;4958575;28;20042;-73
2023/12/19 08:53:16;;;;;;;2.70;1.30;;;;;;;3.32;74.15;99012.84;4980659;28;20248;-73
2023/12/19 08:56:04;;;;;;;1.67;1.40;;;;;;;3.45;74.78;99022.41;4995250;28;20037;-72
2023/12/19 08:58:48;;;;;;;2.55;1.40;;;;;;;3.25;74.63;98986.22;4978416;28;20038;-71
2023/12/19 09:01:17;;;;;;;3.67;1.80;;;;;;;3.42;74.51;99003.53;4993421;28;20088;-71
2023/12/19 09:03:56;;;;;;;;;;;;;;;;;;;;;
2023/12/19 09:06:22;;;;;;;1.33;1.23;;;;;;;3.10;75.09;98968.97;4996427;28;20050;-73
2023/12/19 09:08:52;;;;;;;3.42;1.40;;;;;;;2.65;74.39;98865.81;5012891;28;20041;-73
2023/12/19 09:11:18;;;;;;;1.42;1.13;;;;;;;3.46;74.26;98976.94;4976714;28;20070;-71
2023/12/19 09:13:44;;;;;;;1.40;1.00;;;;;;;2.98;74.75;98902.06;4992135;28;20424;-72
2023/12/19 09:16:11;;;;;;;3.38;1.42;;;;;;;3.57;74.78;98967.59;4992972;28;20042;-71
2023/12/19 09:18:36;;;;;;;2.00;1.40;;;;;;;3.50;74.72;98932.38;4992773;28;20564;-70
2023/12/19 09:21:17;;;;;;;1.40;1.20;;;;;;;3.69;74.43;98942.78;5006171;28;20105;-72
2023/12/19 09:24:01;;;;;;;2.63;1.70;;;;;;;3.72;75.16;98932.50;4978547;28;20046;-68
2023/12/19 09:26:31;;;;;;;1.77;1.00;;;;;;;3.14;73.75;98836.19;5006533;28;20033;-73
2023/12/19 09:29:00;;;;;;;2.17;1.13;;;;;;;3.65;74.26;98913.59;4974861;28;20133;-73
2023/12/19 09:31:26;;;;;;;1.38;0.93;;;;;;;3.57;73.97;98916.16;4992746;28;20106;-73
2023/12/19 09:33:52;;;;;;;1.55;1.08;;;;;;;3.44;74.37;98886.03;4996634;28;20066;-73
2023/12/19 09:36:25;;;;;;;1.50;1.10;;;;;;;3.15;74.34;98833.59;5010693;28;21318;-73
2023/12/19 09:39:25;;;;;;;1.10;0.80;;;;;;;2.99;74.13;98811.25;4987589;28;20113;-72
2023/12/19 09:41:53;;;;;;;2.30;1.30;;;;;;;2.82;74.32;98785.44;5009520;28;20137;-73
2023/12/19 09:44:23;;;;;;;1.27;1.13;;;;;;;3.37;74.16;98868.88;5006274;28;20441;-73
2023/12/19 09:47:02;;;;;;;3.17;1.40;;;;;;;3.44;74.35;98844.88;5009754;28;20042;-73
2023/12/19 09:49:43;;;;;;;1.17;0.90;;;;;;;3.53;74.38;98833.81;5008822;28;20054;-71
2023/12/19 09:52:16;;;;;;;3.78;1.00;;;;;;;3.54;74.16;98831.22;4992427;28;20093;-71
2023/12/19 09:54:46;;;;;;;1.77;1.10;;;;;;;3.58;74.16;98838.13;4976540;28;20038;-70
2023/12/19 09:57:22;;;;;;;1.10;0.80;;;;;;;3.36;74.07;98795.16;4992069;28;20038;-69
2023/12/19 09:59:48;;;;;;;0.95;0.85;;;;;;;3.49;73.53;98801.19;4988884;28;20062;-72
2023/12/19 10:02:20;;;;;;;1.92;1.05;;;;;;;3.21;73.16;98783.91;5009058;28;20066;-73
2023/12/19 10:04:55;;;;;;;2.08;1.08;;;;;;;3.31;73.65;98790.00;4991033;28;20515;-74
2023/12/19 10:07:23;;;;;;;1.40;1.05;;;;;;;3.42;73.80;98816.59;5009063;28;20062;-71
2023/12/19 10:09:56;;;;;;;2.20;1.35;;;;;;;3.40;73.99;98808.00;4964144;28;20049;-73
2023/12/19 10:12:27;;;;;;;2.95;1.20;;;;;;;3.30;73.33;98793.41;4996709;28;20150;-71
2023/12/19 10:15:15;;;;;;;1.60;1.20;;;;;;;3.18;73.88;98781.34;4991519;28;20144;-74
2023/12/19 10:18:08;;;;;;;2.03;1.30;;;;;;;3.31;74.13;98808.84;4989489;28;20038;-72
2023/12/19 10:20:38;;;;;;;2.78;1.27;;;;;;;3.20;73.83;98781.34;5001912;28;20050;-74
2023/12/19 10:23:14;;;;;;;1.67;1.23;;;;;;;3.18;73.94;98783.94;4994083;28;20083;-72
2023/12/19 10:25:51;;;;;;;2.20;1.20;;;;;;;2.90;74.11;98705.81;4969880;28;20049;-74
2023/12/19 10:28:20;;;;;;;2.20;1.20;;;;;;;3.33;73.96;98759.97;5008844;28;20044;-72
2023/12/19 10:30:47;;;;;;;2.15;1.42;;;;;;;3.13;74.11;98703.34;4996422;28;20062;-73
2023/12/19 10:33:18;;;;;;;2.60;1.45;;;;;;;3.38;74.44;98732.56;4997948;28;20069;-75
2023/12/19 10:35:45;;;;;;;2.13;1.42;;;;;;;3.39;74.18;98718.84;4995113;28;20058;-71
2023/12/19 10:38:16;;;;;;;3.10;1.48;;;;;;;3.03;74.41;98663.03;4977787;28;20612;-71
2023/12/19 10:41:03;;;;;;;2.67;1.58;;;;;;;3.07;74.07;98670.78;4979482;28;20068;-70
2023/12/19 10:43:38;;;;;;;3.25;1.50;;;;;;;3.43;74.02;98719.72;4996548;28;20086;-74
2023/12/19 10:46:12;;;;;;;2.88;1.65;;;;;;;3.56;74.17;98726.63;5010667;28;20133;-71
2023/12/19 10:48:38;;;;;;;2.60;1.10;;;;;;;3.33;73.77;98672.53;5019404;28;20033;-72
2023/12/19 10:51:32;;;;;;;2.38;1.52;;;;;;;3.55;73.84;98704.31;4982641;28;20055;-67
2023/12/19 10:54:08;;;;;;;2.28;1.30;;;;;;;3.62;73.80;98694.91;4982638;28;20054;-74
2023/12/19 10:57:02;;;;;;;1.60;1.27;;;;;;;3.57;73.60;98684.59;4972287;28;20070;-78
2023/12/19 11:02:49;;;;;;;3.75;1.60;;;;;;;3.54;73.47;98676.00;4995277;28;20050;-75
2023/12/19 11:05:57;;;;;;;;;;;;;;;;;;;;;
2023/12/19 11:08:27;;;;;;;1.60;1.20;;;;;;;3.51;73.89;98658.03;5013883;28;20101;-76
2023/12/19 11:11:28;;;;;;;2.50;1.70;;;;;;;3.47;74.25;98644.28;5012652;28;20014;-81
2023/12/19 11:13:57;;;;;;;1.80;1.40;;;;;;;3.34;74.59;98619.41;5002402;28;20516;-78
2023/12/19 11:17:07;;;;;;;2.63;1.30;;;;;;;3.53;74.13;98634.00;5021699;28;20070;-80
2023/12/19 11:20:19;;;;;;;1.75;1.30;;;;;;;3.33;74.10;98617.69;4980052;28;20046;-76
2023/12/19 11:22:57;;;;;;;1.60;1.30;;;;;;;3.40;74.18;98640.84;4995360;28;20039;-74
2023/12/19 11:26:03;;;;;;;3.25;1.42;;;;;;;3.36;74.83;98627.97;5014102;28;20069;-74
2023/12/19 11:28:46;;;;;;;2.22;1.27;;;;;;;3.29;74.73;98602.25;5002660;28;20036;-76
2023/12/19 11:31:31;;;;;;;2.28;1.45;;;;;;;3.12;74.12;98584.22;5000122;28;20069;-80
2023/12/19 11:34:24;;;;;;;1.63;1.13;;;;;;;2.90;74.06;98546.47;5011214;28;20572;-79
2023/12/19 11:37:07;;;;;;;1.92;1.25;;;;;;;2.78;74.81;98504.50;4995045;28;20046;-77
2023/12/19 11:39:43;;;;;;;3.15;1.40;;;;;;;2.75;74.52;98495.94;4998620;28;20049;-79
2023/12/19 11:42:38;;;;;;;2.20;1.58;;;;;;;3.28;74.74;98584.25;4976677;28;20065;-76
2023/12/19 11:45:16;;;;;;;3.13;1.90;;;;;;;3.22;74.57;98576.53;5012199;28;20045;-77
2023/12/19 11:47:56;;;;;;;;;;;;;;;3.14;74.54;98555.97;4967491;28;20034;-79
2023/12/19 11:50:43;;;;;;;3.75;2.40;;;;;;;3.11;75.11;98548.25;4977695;28;19982;-76
2023/12/19 11:53:13;;;;;;;3.35;1.80;;;;;;;3.05;75.02;98545.66;5013479;28;20071;-77
2023/12/19 11:55:40;;;;;;;2.47;1.45;;;;;;;2.99;74.57;98543.94;4984074;28;20042;-75
2023/12/19 11:58:13;;;;;;;2.63;1.80;;;;;;;2.74;75.42;98494.22;4996161;28;20046;-79
2023/12/19 12:00:41;;;;;;;2.25;1.50;;;;;;;2.60;75.54;98484.75;5003490;28;20029;-80
2023/12/19 12:03:09;;;;;;;2.17;1.42;;;;;;;2.44;75.47;98444.50;4988120;28;20061;-77
2023/12/19 12:05:38;;;;;;;3.83;1.70;;;;;;;2.79;75.54;98495.06;4997803;28;20038;-79